createdAt,value
2019-04-29T00:01:07.070Z,6.08
2019-04-29T00:04:12.390Z,6.14
2019-04-29T00:07:17.772Z,6.13
2019-04-29T00:10:23.473Z,6.15
2019-04-29T00:13:29.068Z,6.12
2019-04-29T00:16:46.426Z,6.15
2019-04-29T00:20:09.521Z,6.10
2019-04-29T00:23:14.862Z,6.04
2019-04-29T00:26:20.101Z,6.02
2019-04-29T00:29:25.550Z,6.05
2019-04-29T00:32:31.088Z,6.11
2019-04-29T00:35:36.732Z,6.05
2019-04-29T00:39:04.000Z,6.11
2019-04-29T00:42:21.741Z,6.02
2019-04-29T00:45:27.026Z,6.04
2019-04-29T00:48:32.307Z,6.08
2019-04-29T00:51:37.571Z,6.06
2019-04-29T00:54:48.467Z,6.05
2019-04-29T00:57:53.788Z,6.10
2019-04-29T01:01:00.884Z,6.06
2019-04-29T01:04:06.206Z,6.07
2019-04-29T01:07:11.699Z,6.07
2019-04-29T01:10:19.350Z,6.07
2019-04-29T01:13:24.680Z,6.08
2019-04-29T01:16:33.287Z,6.00
2019-04-29T01:19:38.732Z,6.08
2019-04-29T01:22:44.046Z,6.00
2019-04-29T01:25:52.630Z,5.98
2019-04-29T01:28:58.207Z,5.90
2019-04-29T01:32:05.218Z,5.85
2019-04-29T01:35:10.558Z,5.86
2019-04-29T01:38:15.832Z,5.97
2019-04-29T01:41:23.246Z,5.90
2019-04-29T01:44:32.234Z,5.92
2019-04-29T01:47:39.182Z,5.84
2019-04-29T01:50:44.500Z,5.94
2019-04-29T01:53:49.790Z,5.83
2019-04-29T01:56:55.143Z,5.83
2019-04-29T02:00:00.362Z,5.78
2019-04-29T02:03:05.750Z,5.68
2019-04-29T02:06:11.023Z,5.64
2019-04-29T02:09:24.129Z,5.66
2019-04-29T02:12:29.451Z,5.55
2019-04-29T02:15:34.724Z,5.65
2019-04-29T02:18:41.730Z,5.62
2019-04-29T02:22:06.135Z,5.68
2019-04-29T02:25:16.410Z,5.67
2019-04-29T02:28:21.791Z,5.69
2019-04-29T02:31:40.180Z,5.89
2019-04-29T02:34:45.631Z,5.72
2019-04-29T02:37:50.986Z,5.67
2019-04-29T02:41:06.826Z,5.74
2019-04-29T02:44:12.987Z,5.65
2019-04-29T02:47:18.352Z,5.47
2019-04-29T02:50:23.713Z,5.31
2019-04-29T02:53:31.318Z,5.18
2019-04-29T02:56:37.037Z,5.11
2019-04-29T02:59:46.121Z,5.17
2019-04-29T03:03:07.380Z,5.17
2019-04-29T03:06:12.917Z,5.15
2019-04-29T03:09:18.233Z,5.12
2019-04-29T03:12:23.502Z,5.05
2019-04-29T03:15:33.979Z,5.20
2019-04-29T03:18:45.282Z,5.30
2019-04-29T03:21:55.823Z,5.45
2019-04-29T03:25:01.237Z,5.43
2019-04-29T03:28:06.832Z,5.37
2019-04-29T03:31:12.137Z,5.43
2019-04-29T03:34:17.411Z,5.42
2019-04-29T03:37:22.685Z,5.60
2019-04-29T03:40:27.963Z,5.42
2019-04-29T03:43:33.288Z,5.45
2019-04-29T03:46:38.626Z,5.30
2019-04-29T03:49:43.919Z,5.48
2019-04-29T03:52:49.214Z,5.56
2019-04-29T03:55:56.579Z,5.49
2019-04-29T03:59:02.903Z,5.52
2019-04-29T04:02:33.196Z,5.69
2019-04-29T04:06:03.508Z,5.80
2019-04-29T04:09:17.449Z,5.77
2019-04-29T04:12:22.685Z,5.79
2019-04-29T04:15:27.979Z,5.80
2019-04-29T04:18:35.376Z,5.81
2019-04-29T04:21:41.996Z,5.76
2019-04-29T04:24:47.482Z,5.74
2019-04-29T04:27:52.789Z,5.77
2019-04-29T04:30:58.170Z,5.82
2019-04-29T04:34:03.443Z,5.89
2019-04-29T04:37:09.744Z,6.02
2019-04-29T04:40:18.011Z,6.13
2019-04-29T04:43:23.305Z,6.25
2019-04-29T04:46:28.599Z,6.31
2019-04-29T04:49:34.084Z,6.33
2019-04-29T04:52:39.361Z,6.28
2019-04-29T04:55:46.256Z,6.21
2019-04-29T04:58:52.012Z,6.07
2019-04-29T05:01:57.278Z,5.96
2019-04-29T05:05:04.534Z,6.05
2019-04-29T05:08:09.823Z,6.04
2019-04-29T05:11:15.150Z,6.19
2019-04-29T05:14:20.431Z,6.28
2019-04-29T05:17:25.755Z,6.31
2019-04-29T05:20:33.434Z,6.45
2019-04-29T05:23:41.498Z,6.56
2019-04-29T05:26:46.610Z,6.67
2019-04-29T05:29:51.874Z,6.96
2019-04-29T05:32:59.584Z,7.10
2019-04-29T05:36:26.295Z,7.31
2019-04-29T05:39:36.660Z,7.60
2019-04-29T05:42:42.009Z,7.72
2019-04-29T05:46:09.406Z,7.82
2019-04-29T05:49:17.610Z,7.89
2019-04-29T05:52:39.570Z,7.98
2019-04-29T05:55:46.896Z,8.20
2019-04-29T05:58:52.309Z,8.24
2019-04-29T06:01:57.736Z,8.41
2019-04-29T06:05:03.153Z,8.41
2019-04-29T06:08:08.456Z,8.53
2019-04-29T06:11:13.827Z,8.94
2019-04-29T06:14:22.060Z,9.46
2019-04-29T06:17:26.218Z,9.64
2019-04-29T06:20:31.671Z,9.86
2019-04-29T06:23:37.990Z,9.89
2019-04-29T06:26:43.833Z,10.19
2019-04-29T06:29:49.498Z,10.28
2019-04-29T06:32:57.304Z,10.58
2019-04-29T06:36:02.608Z,11.05
2019-04-29T06:39:08.219Z,11.75
2019-04-29T06:42:15.441Z,11.82
2019-04-29T06:45:21.808Z,11.77
2019-04-29T06:48:27.235Z,11.91
2019-04-29T06:51:32.525Z,12.18
2019-04-29T06:54:37.850Z,12.56
2019-04-29T06:57:43.186Z,12.62
2019-04-29T07:00:50.901Z,12.51
2019-04-29T07:03:59.419Z,12.86
2019-04-29T07:07:04.089Z,13.18
2019-04-29T07:10:10.059Z,13.21
2019-04-29T07:13:17.866Z,13.16
2019-04-29T07:16:27.306Z,13.10
2019-04-29T07:19:29.390Z,13.07
2019-04-29T07:22:34.750Z,12.84
2019-04-29T07:25:40.098Z,12.70
2019-04-29T07:28:48.674Z,12.29
2019-04-29T07:31:54.098Z,12.35
2019-04-29T07:34:59.434Z,12.18
2019-04-29T07:38:08.545Z,12.22
2019-04-29T07:41:14.304Z,12.44
2019-04-29T07:44:21.056Z,12.18
2019-04-29T07:47:29.431Z,12.63
2019-04-29T07:50:33.369Z,12.79
2019-04-29T07:53:45.063Z,12.28
2019-04-29T07:56:45.616Z,12.28
2019-04-29T07:59:50.873Z,12.29
2019-04-29T08:02:56.185Z,12.57
2019-04-29T08:06:01.932Z,12.40
2019-04-29T08:09:09.747Z,12.66
2019-04-29T08:12:15.851Z,12.80
2019-04-29T08:15:22.863Z,12.70
2019-04-29T08:18:28.226Z,12.23
2019-04-29T08:21:34.515Z,12.29
2019-04-29T08:24:39.811Z,12.36
2019-04-29T08:27:45.086Z,12.57
2019-04-29T08:30:50.378Z,12.66
2019-04-29T08:33:55.740Z,13.05
2019-04-29T08:37:01.266Z,12.49
2019-04-29T08:40:16.031Z,12.72
2019-04-29T08:43:41.804Z,12.75
2019-04-29T08:46:52.900Z,13.01
2019-04-29T08:49:58.304Z,12.79
2019-04-29T08:53:03.945Z,12.78
2019-04-29T08:56:10.322Z,13.03
2019-04-29T08:59:16.534Z,12.74
2019-04-29T09:02:33.858Z,13.06
2019-04-29T09:05:31.964Z,12.57
2019-04-29T09:08:37.502Z,12.91
2019-04-29T09:11:47.696Z,12.93
2019-04-29T09:14:49.887Z,13.12
2019-04-29T09:17:55.161Z,12.79
2019-04-29T09:21:00.511Z,12.99
2019-04-29T09:24:05.936Z,13.11
2019-04-29T09:27:15.523Z,12.88
2019-04-29T09:30:20.973Z,12.70
2019-04-29T09:33:26.295Z,12.79
2019-04-29T09:36:32.686Z,12.44
2019-04-29T09:39:43.422Z,12.22
2019-04-29T09:43:15.656Z,12.31
2019-04-29T09:46:30.111Z,12.11
2019-04-29T09:49:34.110Z,12.04
2019-04-29T09:52:39.398Z,12.36
2019-04-29T09:55:44.675Z,12.56
2019-04-29T09:58:52.010Z,12.36
2019-04-29T10:02:26.262Z,12.61
2019-04-29T10:05:42.975Z,12.40
2019-04-29T10:08:50.601Z,12.47
2019-04-29T10:11:56.038Z,12.92
2019-04-29T10:15:01.357Z,12.74
2019-04-29T10:18:29.783Z,12.22
2019-04-29T10:21:36.881Z,11.90
2019-04-29T10:24:42.088Z,11.69
2019-04-29T10:27:47.388Z,11.49
2019-04-29T10:30:52.686Z,11.31
2019-04-29T10:33:58.085Z,11.23
2019-04-29T10:37:03.384Z,11.09
2019-04-29T10:40:20.868Z,10.75
2019-04-29T10:43:39.691Z,10.78
2019-04-29T10:47:02.511Z,10.60
2019-04-29T10:50:27.044Z,10.57
2019-04-29T10:53:32.319Z,10.53
2019-04-29T10:56:39.450Z,10.60
2019-04-29T10:59:50.165Z,10.56
2019-04-29T11:02:54.253Z,10.68
2019-04-29T11:06:01.782Z,10.82
2019-04-29T11:09:28.592Z,10.71
2019-04-29T11:12:33.958Z,10.78
2019-04-29T11:15:39.357Z,10.86
2019-04-29T11:18:47.743Z,10.83
2019-04-29T11:21:51.920Z,10.54
2019-04-29T11:25:30.229Z,10.68
2019-04-29T11:28:38.324Z,10.71
2019-04-29T11:31:43.910Z,10.75
2019-04-29T11:35:24.546Z,10.83
2019-04-29T11:38:33.447Z,10.92
2019-04-29T11:41:37.399Z,10.66
2019-04-29T11:44:42.719Z,10.43
2019-04-29T11:47:47.993Z,10.45
2019-04-29T11:51:04.586Z,10.46
2019-04-29T11:54:12.726Z,10.53
2019-04-29T11:57:40.134Z,10.64
2019-04-29T12:00:52.873Z,10.64
2019-04-29T12:03:59.113Z,10.56
2019-04-29T12:07:06.029Z,10.57
2019-04-29T12:10:11.877Z,10.54
2019-04-29T12:13:28.359Z,10.39
2019-04-29T12:16:38.219Z,10.39
2019-04-29T12:19:44.344Z,10.27
2019-04-29T12:22:49.687Z,10.14
2019-04-29T12:25:58.646Z,10.06
2019-04-29T12:29:01.950Z,10.10
2019-04-29T12:32:37.029Z,10.21
2019-04-29T12:35:58.568Z,10.19
2019-04-29T12:39:42.749Z,10.41
2019-04-29T12:42:55.720Z,10.46
2019-04-29T12:46:26.199Z,10.34
2019-04-29T12:49:31.644Z,10.33
2019-04-29T12:52:37.002Z,10.22
2019-04-29T12:55:47.300Z,10.15
2019-04-29T12:58:54.943Z,10.20
2019-04-29T13:02:19.961Z,10.07
2019-04-29T13:05:58.404Z,10.10
2019-04-29T13:09:17.625Z,10.06
2019-04-29T13:12:19.726Z,10.09
2019-04-29T13:15:43.802Z,9.97
2019-04-29T13:19:11.867Z,10.18
2019-04-29T13:22:15.602Z,10.12
2019-04-29T13:25:20.852Z,10.03
2019-04-29T13:28:30.351Z,9.98
2019-04-29T13:31:38.519Z,9.95
2019-04-29T13:34:43.020Z,9.91
2019-04-29T13:37:48.442Z,10.04
2019-04-29T13:41:11.977Z,10.13
2019-04-29T13:44:05.408Z,10.19
2019-04-29T13:47:36.939Z,10.11
2019-04-29T13:50:48.806Z,10.12
2019-04-29T13:53:55.305Z,10.28
2019-04-29T13:57:09.414Z,10.38
2019-04-29T14:00:28.414Z,10.56
2019-04-29T14:03:55.648Z,10.57
2019-04-29T14:07:01.054Z,10.63
2019-04-29T14:10:10.366Z,10.53
2019-04-29T14:13:17.678Z,10.67
2019-04-29T14:16:22.013Z,10.84
2019-04-29T14:19:41.091Z,10.94
2019-04-29T14:22:35.231Z,10.89
2019-04-29T14:25:40.568Z,10.78
2019-04-29T14:28:46.254Z,10.66
2019-04-29T14:31:59.129Z,10.48
2019-04-29T14:35:11.754Z,10.41
2019-04-29T14:38:16.564Z,10.40
2019-04-29T14:41:21.884Z,10.58
2019-04-29T14:44:44.059Z,10.74
2019-04-29T14:48:08.306Z,10.58
2019-04-29T14:51:13.841Z,10.41
2019-04-29T14:54:19.249Z,10.54
2019-04-29T14:57:24.569Z,10.63
2019-04-29T15:00:54.636Z,10.58
2019-04-29T15:04:17.405Z,10.77
2019-04-29T15:07:12.311Z,10.75
2019-04-29T15:10:19.576Z,10.75
2019-04-29T15:13:25.887Z,10.59
2019-04-29T15:16:36.623Z,10.53
2019-04-29T15:19:55.865Z,10.59
2019-04-29T15:23:01.357Z,10.49
2019-04-29T15:26:06.701Z,10.49
2019-04-29T15:29:12.134Z,10.48
2019-04-29T15:32:17.916Z,10.39
2019-04-29T15:35:25.621Z,10.38
2019-04-29T15:38:32.508Z,10.34
2019-04-29T15:41:40.368Z,10.37
2019-04-29T15:44:45.832Z,10.36
2019-04-29T15:47:51.317Z,10.34
2019-04-29T15:50:56.628Z,10.35
2019-04-29T15:54:01.932Z,10.25
2019-04-29T15:57:15.133Z,10.35
2019-04-29T16:00:21.882Z,10.46
2019-04-29T16:03:24.938Z,10.51
2019-04-29T16:07:01.448Z,10.22
2019-04-29T16:10:21.933Z,10.27
2019-04-29T16:13:27.922Z,10.22
2019-04-29T16:16:34.539Z,10.22
2019-04-29T16:19:52.934Z,10.31
2019-04-29T16:23:00.570Z,10.33
2019-04-29T16:26:03.655Z,10.45
2019-04-29T16:29:13.010Z,10.53
2019-04-29T16:32:24.982Z,10.60
2019-04-29T16:35:34.884Z,10.74
2019-04-29T16:38:40.671Z,10.73
2019-04-29T16:42:04.521Z,10.86
2019-04-29T16:45:14.415Z,11.13
2019-04-29T16:48:19.946Z,10.97
2019-04-29T16:51:25.225Z,11.07
2019-04-29T16:54:30.557Z,10.88
2019-04-29T16:57:35.926Z,10.89
2019-04-29T17:00:46.517Z,10.82
2019-04-29T17:03:48.572Z,10.67
2019-04-29T17:07:11.743Z,10.66
2019-04-29T17:10:22.669Z,10.63
2019-04-29T17:13:28.486Z,10.42
2019-04-29T17:16:33.981Z,10.49
2019-04-29T17:19:39.680Z,10.43
2019-04-29T17:22:46.827Z,10.36
2019-04-29T17:25:52.268Z,10.37
2019-04-29T17:29:26.721Z,10.36
2019-04-29T17:32:42.622Z,10.35
2019-04-29T17:35:42.895Z,10.29
2019-04-29T17:38:45.870Z,10.18
2019-04-29T17:41:52.824Z,10.16
2019-04-29T17:45:01.358Z,10.21
2019-04-29T17:48:18.351Z,10.12
2019-04-29T17:52:15.876Z,10.15
2019-04-29T17:57:25.169Z,10.16
2019-04-29T18:00:42.170Z,10.09
2019-04-29T18:04:11.788Z,10.00
2019-04-29T18:07:32.070Z,10.07
2019-04-29T18:10:45.694Z,10.04
2019-04-29T18:13:52.527Z,9.99
2019-04-29T18:16:59.316Z,10.01
2019-04-29T18:24:01.491Z,9.96
2019-04-29T18:27:10.185Z,9.96
2019-04-29T18:30:19.468Z,9.85
2019-04-29T18:33:26.000Z,9.82
2019-04-29T18:36:29.964Z,9.84
2019-04-29T18:39:35.754Z,9.88
2019-04-29T18:42:48.445Z,9.81
2019-04-29T18:45:56.257Z,9.76
2019-04-29T18:49:02.955Z,9.79
2019-04-29T18:52:07.846Z,9.76
2019-04-29T18:55:13.362Z,9.79
2019-04-29T18:58:18.667Z,9.79
2019-04-29T19:01:28.555Z,9.71
2019-04-29T19:04:53.456Z,9.72
2019-04-29T19:08:11.393Z,9.67
2019-04-29T19:11:09.231Z,9.67
2019-04-29T19:14:20.571Z,9.67
2019-04-29T19:17:30.901Z,9.68
2019-04-29T19:20:35.908Z,9.76
2019-04-29T19:23:41.567Z,9.66
2019-04-29T19:26:46.885Z,9.67
2019-04-29T19:29:52.230Z,9.66
2019-04-29T19:33:00.451Z,9.65
2019-04-29T19:36:13.386Z,9.64
2019-04-29T19:39:16.906Z,9.63
2019-04-29T19:42:31.029Z,9.65
2019-04-29T19:45:33.371Z,9.62
2019-04-29T19:48:38.985Z,9.63
2019-04-29T19:51:47.285Z,9.62
2019-04-29T19:54:51.564Z,9.74
2019-04-29T19:57:58.437Z,9.68
2019-04-29T20:01:11.775Z,9.68
2019-04-29T20:04:30.217Z,9.83
2019-04-29T20:07:41.209Z,9.72
2019-04-29T20:10:47.976Z,9.77
2019-04-29T20:14:01.970Z,9.71
2019-04-29T20:17:36.790Z,9.68
2019-04-29T20:21:08.665Z,9.72
2019-04-29T20:24:09.403Z,9.65
2019-04-29T20:27:16.934Z,9.61
2019-04-29T20:30:22.572Z,9.70
2019-04-29T20:33:28.266Z,9.66
2019-04-29T20:36:41.649Z,9.65
2019-04-29T20:39:40.808Z,9.64
2019-04-29T20:42:49.041Z,9.69
2019-04-29T20:45:53.252Z,9.70
2019-04-29T20:48:59.887Z,9.70
2019-04-29T20:52:22.025Z,9.79
2019-04-29T20:55:27.711Z,9.75
2019-04-29T20:58:33.399Z,9.71
2019-04-29T21:01:43.319Z,9.71
2019-04-29T21:04:49.392Z,9.78
2019-04-29T21:08:03.118Z,9.71
2019-04-29T21:11:05.767Z,9.70
2019-04-29T21:14:17.629Z,9.63
2019-04-29T21:17:29.420Z,9.64
2019-04-29T21:20:31.874Z,9.62
2019-04-29T21:23:38.782Z,9.67
2019-04-29T21:26:45.789Z,9.70
2019-04-29T21:29:54.101Z,9.63
2019-04-29T21:32:59.243Z,9.65
2019-04-29T21:36:33.014Z,9.70
2019-04-29T21:39:46.682Z,9.61
2019-04-29T21:42:55.472Z,9.66
2019-04-29T21:46:00.872Z,9.64
2019-04-29T21:49:11.507Z,9.67
2019-04-29T21:52:15.236Z,9.72
2019-04-29T21:55:24.813Z,9.68
2019-04-29T21:58:28.675Z,9.61
2019-04-29T22:01:37.484Z,9.51
2019-04-29T22:04:45.026Z,9.48
2019-04-29T22:07:50.720Z,9.45
2019-04-29T22:10:59.680Z,9.41
2019-04-29T22:14:05.596Z,9.27
2019-04-29T22:17:17.893Z,9.24
2019-04-29T22:20:23.179Z,9.20
2019-04-29T22:23:28.594Z,9.14
2019-04-29T22:26:35.061Z,9.07
2019-04-29T22:29:40.635Z,9.14
2019-04-29T22:32:47.134Z,9.20
2019-04-29T22:35:53.005Z,9.29
2019-04-29T22:38:58.264Z,9.32
2019-04-29T22:42:14.810Z,9.30
2019-04-29T22:45:23.131Z,9.29
2019-04-29T22:48:28.490Z,9.39
2019-04-29T22:51:35.449Z,9.38
2019-04-29T22:54:40.926Z,9.42
2019-04-29T22:57:46.928Z,9.45
2019-04-29T23:00:52.346Z,9.31
2019-04-29T23:03:57.625Z,9.26
2019-04-29T23:07:03.046Z,9.22
2019-04-29T23:10:08.586Z,9.23
2019-04-29T23:13:13.936Z,9.23
2019-04-29T23:16:20.778Z,9.20
2019-04-29T23:19:31.672Z,9.17
2019-04-29T23:22:43.503Z,9.20
2019-04-29T23:25:50.960Z,9.17
2019-04-29T23:28:59.446Z,9.11
2019-04-29T23:32:06.760Z,9.12
2019-04-29T23:35:10.605Z,9.03
2019-04-29T23:38:16.093Z,8.91
2019-04-29T23:41:26.099Z,8.83
2019-04-29T23:44:29.888Z,8.73
2019-04-29T23:47:35.724Z,8.53
2019-04-29T23:50:41.240Z,8.43
2019-04-29T23:53:46.675Z,8.29
2019-04-29T23:57:08.929Z,8.22
